sensor_id;sensor_type;location;lat;lon;timestamp;P1;durP1;ratioP1;P2;durP2;ratioP2
50900;SDS011;36879;51.416;6.678;2022-08-18T10:54:33;9.32;;;6.28;;
50900;SDS011;36879;51.416;6.678;2022-08-18T10:57:11;8.40;;;6.20;;
50900;SDS011;36879;51.416;6.678;2022-08-18T10:59:45;14.20;;;6.25;;
50900;SDS011;36879;51.416;6.678;2022-08-18T11:04:52;10.98;;;5.70;;
50900;SDS011;36879;51.416;6.678;2022-08-18T11:07:21;8.90;;;5.35;;
50900;SDS011;36879;51.416;6.678;2022-08-18T11:09:52;7.55;;;4.47;;
50900;SDS011;36879;51.416;6.678;2022-08-18T11:12:51;6.93;;;3.90;;
50900;SDS011;36879;51.416;6.678;2022-08-18T11:15:34;7.07;;;4.18;;
50900;SDS011;36879;51.416;6.678;2022-08-18T11:20:38;6.00;;;4.07;;
50900;SDS011;36879;51.416;6.678;2022-08-18T11:23:11;4.60;;;3.47;;
50900;SDS011;36879;51.416;6.678;2022-08-18T11:25:37;7.78;;;4.45;;
50900;SDS011;36879;51.416;6.678;2022-08-18T11:28:18;6.15;;;3.63;;
50900;SDS011;36879;51.416;6.678;2022-08-18T11:30:47;5.25;;;3.25;;
50900;SDS011;36879;51.416;6.678;2022-08-18T11:33:15;6.32;;;3.72;;
50900;SDS011;36879;51.416;6.678;2022-08-18T11:35:48;8.57;;;4.55;;
50900;SDS011;36879;51.416;6.678;2022-08-18T11:38:15;5.57;;;3.80;;
50900;SDS011;36879;51.416;6.678;2022-08-18T11:40:46;6.85;;;4.38;;
50900;SDS011;36879;51.416;6.678;2022-08-18T11:43:16;5.22;;;3.80;;
50900;SDS011;36879;51.416;6.678;2022-08-18T11:45:48;4.53;;;2.90;;
50900;SDS011;36879;51.416;6.678;2022-08-18T11:48:30;4.40;;;3.15;;
50900;SDS011;36879;51.416;6.678;2022-08-18T11:50:59;4.20;;;2.75;;
50900;SDS011;36879;51.416;6.678;2022-08-18T11:56:14;4.80;;;3.42;;
50900;SDS011;36879;51.416;6.678;2022-08-18T12:03:56;4.13;;;2.45;;
50900;SDS011;36879;51.416;6.678;2022-08-18T12:06:24;5.13;;;2.83;;
50900;SDS011;36879;51.416;6.678;2022-08-18T12:08:59;5.50;;;3.08;;
50900;SDS011;36879;51.416;6.678;2022-08-18T12:11:27;4.68;;;2.85;;
50900;SDS011;36879;51.416;6.678;2022-08-18T12:16:31;4.43;;;3.05;;
50900;SDS011;36879;51.416;6.678;2022-08-18T12:19:00;4.22;;;3.17;;
50900;SDS011;36879;51.416;6.678;2022-08-18T12:21:26;5.65;;;3.28;;
50900;SDS011;36879;51.416;6.678;2022-08-18T12:23:52;7.25;;;3.63;;
50900;SDS011;36879;51.416;6.678;2022-08-18T12:26:18;7.95;;;3.10;;
50900;SDS011;36879;51.416;6.678;2022-08-18T12:28:45;4.57;;;3.08;;
50900;SDS011;36879;51.416;6.678;2022-08-18T12:31:11;3.42;;;2.35;;
50900;SDS011;36879;51.416;6.678;2022-08-18T12:33:37;12.25;;;3.10;;
50900;SDS011;36879;51.416;6.678;2022-08-18T12:36:03;8.48;;;3.15;;
50900;SDS011;36879;51.416;6.678;2022-08-18T12:38:31;6.45;;;3.70;;
50900;SDS011;36879;51.416;6.678;2022-08-18T12:40:57;5.95;;;3.15;;
50900;SDS011;36879;51.416;6.678;2022-08-18T12:43:23;6.25;;;3.30;;
50900;SDS011;36879;51.416;6.678;2022-08-18T12:45:50;6.20;;;3.30;;
50900;SDS011;36879;51.416;6.678;2022-08-18T12:48:16;4.72;;;3.17;;
50900;SDS011;36879;51.416;6.678;2022-08-18T12:50:42;13.02;;;3.17;;
50900;SDS011;36879;51.416;6.678;2022-08-18T12:53:09;5.55;;;3.00;;
50900;SDS011;36879;51.416;6.678;2022-08-18T12:55:38;5.00;;;2.70;;
50900;SDS011;36879;51.416;6.678;2022-08-18T12:58:04;4.60;;;3.00;;
50900;SDS011;36879;51.416;6.678;2022-08-18T13:00:31;6.25;;;3.28;;
50900;SDS011;36879;51.416;6.678;2022-08-18T13:02:57;7.13;;;3.75;;
50900;SDS011;36879;51.416;6.678;2022-08-18T13:05:23;8.18;;;4.10;;
50900;SDS011;36879;51.416;6.678;2022-08-18T13:07:49;7.22;;;3.83;;
50900;SDS011;36879;51.416;6.678;2022-08-18T13:10:15;7.28;;;3.25;;
50900;SDS011;36879;51.416;6.678;2022-08-18T13:12:42;5.68;;;3.90;;
50900;SDS011;36879;51.416;6.678;2022-08-18T13:15:08;6.32;;;4.13;;
50900;SDS011;36879;51.416;6.678;2022-08-18T13:17:37;6.30;;;4.20;;
50900;SDS011;36879;51.416;6.678;2022-08-18T13:20:05;5.55;;;3.75;;
50900;SDS011;36879;51.416;6.678;2022-08-18T13:22:32;6.45;;;3.38;;
50900;SDS011;36879;51.416;6.678;2022-08-18T13:25:00;5.22;;;3.83;;
50900;SDS011;36879;51.416;6.678;2022-08-18T13:27:26;8.82;;;4.25;;
50900;SDS011;36879;51.416;6.678;2022-08-18T13:29:52;6.28;;;3.78;;
50900;SDS011;36879;51.416;6.678;2022-08-18T13:32:20;4.63;;;3.72;;
50900;SDS011;36879;51.416;6.678;2022-08-18T13:34:46;6.15;;;3.25;;
50900;SDS011;36879;51.416;6.678;2022-08-18T13:37:12;6.13;;;3.88;;
50900;SDS011;36879;51.416;6.678;2022-08-18T13:39:39;7.18;;;3.65;;
50900;SDS011;36879;51.416;6.678;2022-08-18T13:42:05;9.73;;;4.07;;
50900;SDS011;36879;51.416;6.678;2022-08-18T13:44:31;5.63;;;3.63;;
50900;SDS011;36879;51.416;6.678;2022-08-18T13:46:57;5.38;;;3.78;;
50900;SDS011;36879;51.416;6.678;2022-08-18T13:49:23;6.47;;;4.00;;
50900;SDS011;36879;51.416;6.678;2022-08-18T13:51:50;8.45;;;3.72;;
50900;SDS011;36879;51.416;6.678;2022-08-18T13:54:21;5.93;;;3.33;;
50900;SDS011;36879;51.416;6.678;2022-08-18T13:56:48;4.65;;;3.22;;
50900;SDS011;36879;51.416;6.678;2022-08-18T13:59:15;11.60;;;3.65;;
50900;SDS011;36879;51.416;6.678;2022-08-18T14:01:41;5.03;;;2.88;;
50900;SDS011;36879;51.416;6.678;2022-08-18T14:04:09;4.88;;;3.50;;
50900;SDS011;36879;51.416;6.678;2022-08-18T14:06:36;4.68;;;2.80;;
50900;SDS011;36879;51.416;6.678;2022-08-18T14:09:03;6.43;;;3.60;;
50900;SDS011;36879;51.416;6.678;2022-08-18T14:11:29;4.55;;;3.03;;
50900;SDS011;36879;51.416;6.678;2022-08-18T14:13:55;3.65;;;2.28;;
50900;SDS011;36879;51.416;6.678;2022-08-18T14:16:22;3.75;;;2.83;;
50900;SDS011;36879;51.416;6.678;2022-08-18T14:18:48;3.45;;;2.40;;
50900;SDS011;36879;51.416;6.678;2022-08-18T14:21:39;5.18;;;2.72;;
50900;SDS011;36879;51.416;6.678;2022-08-18T14:24:25;8.05;;;3.08;;
50900;SDS011;36879;51.416;6.678;2022-08-18T14:27:09;3.40;;;2.60;;
50900;SDS011;36879;51.416;6.678;2022-08-18T14:29:35;3.40;;;2.53;;
50900;SDS011;36879;51.416;6.678;2022-08-18T14:32:02;3.15;;;2.17;;
50900;SDS011;36879;51.416;6.678;2022-08-18T14:34:28;6.35;;;2.83;;
50900;SDS011;36879;51.416;6.678;2022-08-18T14:36:54;3.45;;;2.20;;
50900;SDS011;36879;51.416;6.678;2022-08-18T14:39:20;3.03;;;2.08;;
50900;SDS011;36879;51.416;6.678;2022-08-18T14:41:46;3.95;;;2.35;;
50900;SDS011;36879;51.416;6.678;2022-08-18T14:44:12;5.15;;;3.00;;
50900;SDS011;36879;51.416;6.678;2022-08-18T14:46:39;3.40;;;2.40;;
50900;SDS011;36879;51.416;6.678;2022-08-18T14:49:06;3.20;;;2.63;;
50900;SDS011;36879;51.416;6.678;2022-08-18T14:51:33;3.83;;;2.60;;
50900;SDS011;36879;51.416;6.678;2022-08-18T14:53:59;5.25;;;2.67;;
50900;SDS011;36879;51.416;6.678;2022-08-18T14:56:25;4.90;;;2.30;;
50900;SDS011;36879;51.416;6.678;2022-08-18T14:58:53;3.83;;;2.92;;
50900;SDS011;36879;51.416;6.678;2022-08-18T15:01:19;3.30;;;2.33;;
50900;SDS011;36879;51.416;6.678;2022-08-18T15:03:46;3.03;;;2.40;;
50900;SDS011;36879;51.416;6.678;2022-08-18T15:06:12;3.58;;;2.67;;
50900;SDS011;36879;51.416;6.678;2022-08-18T15:08:38;3.78;;;2.58;;
50900;SDS011;36879;51.416;6.678;2022-08-18T15:11:04;4.38;;;2.72;;
50900;SDS011;36879;51.416;6.678;2022-08-18T15:13:30;4.22;;;2.58;;
50900;SDS011;36879;51.416;6.678;2022-08-18T15:15:58;4.13;;;2.25;;
50900;SDS011;36879;51.416;6.678;2022-08-18T15:18:25;3.80;;;2.55;;
50900;SDS011;36879;51.416;6.678;2022-08-18T15:20:51;4.45;;;2.63;;
50900;SDS011;36879;51.416;6.678;2022-08-18T15:23:36;5.63;;;2.58;;
50900;SDS011;36879;51.416;6.678;2022-08-18T15:26:22;4.30;;;2.37;;
50900;SDS011;36879;51.416;6.678;2022-08-18T15:28:49;7.93;;;2.55;;
50900;SDS011;36879;51.416;6.678;2022-08-18T15:31:15;8.38;;;3.40;;
50900;SDS011;36879;51.416;6.678;2022-08-18T15:33:41;5.93;;;2.78;;
50900;SDS011;36879;51.416;6.678;2022-08-18T15:36:07;4.93;;;3.00;;
50900;SDS011;36879;51.416;6.678;2022-08-18T15:38:34;4.60;;;2.20;;
50900;SDS011;36879;51.416;6.678;2022-08-18T15:41:00;2.65;;;2.00;;
50900;SDS011;36879;51.416;6.678;2022-08-18T15:43:28;3.88;;;2.20;;
50900;SDS011;36879;51.416;6.678;2022-08-18T15:45:55;4.30;;;2.65;;
50900;SDS011;36879;51.416;6.678;2022-08-18T15:48:22;4.05;;;2.47;;
50900;SDS011;36879;51.416;6.678;2022-08-18T15:50:49;2.95;;;2.22;;
50900;SDS011;36879;51.416;6.678;2022-08-18T15:53:16;2.83;;;2.25;;
50900;SDS011;36879;51.416;6.678;2022-08-18T15:55:42;2.90;;;2.30;;
50900;SDS011;36879;51.416;6.678;2022-08-18T15:58:09;3.22;;;2.42;;
50900;SDS011;36879;51.416;6.678;2022-08-18T16:00:36;5.22;;;2.22;;
50900;SDS011;36879;51.416;6.678;2022-08-18T16:03:04;4.30;;;2.28;;
50900;SDS011;36879;51.416;6.678;2022-08-18T16:05:33;3.58;;;2.40;;
50900;SDS011;36879;51.416;6.678;2022-08-18T16:08:01;3.53;;;2.70;;
50900;SDS011;36879;51.416;6.678;2022-08-18T16:10:30;5.32;;;2.20;;
50900;SDS011;36879;51.416;6.678;2022-08-18T16:12:56;3.92;;;2.70;;
50900;SDS011;36879;51.416;6.678;2022-08-18T16:15:23;5.45;;;3.08;;
50900;SDS011;36879;51.416;6.678;2022-08-18T16:17:51;4.25;;;2.65;;
50900;SDS011;36879;51.416;6.678;2022-08-18T16:20:18;3.83;;;2.70;;
50900;SDS011;36879;51.416;6.678;2022-08-18T16:22:45;4.53;;;2.58;;
50900;SDS011;36879;51.416;6.678;2022-08-18T16:25:12;4.10;;;2.50;;
50900;SDS011;36879;51.416;6.678;2022-08-18T16:27:40;9.50;;;2.80;;
50900;SDS011;36879;51.416;6.678;2022-08-18T16:30:07;3.90;;;2.65;;
50900;SDS011;36879;51.416;6.678;2022-08-18T16:32:33;3.92;;;2.60;;
50900;SDS011;36879;51.416;6.678;2022-08-18T16:34:59;7.03;;;2.83;;
50900;SDS011;36879;51.416;6.678;2022-08-18T16:37:26;3.67;;;2.55;;
50900;SDS011;36879;51.416;6.678;2022-08-18T16:39:52;5.43;;;2.75;;
50900;SDS011;36879;51.416;6.678;2022-08-18T16:42:18;4.03;;;2.42;;
50900;SDS011;36879;51.416;6.678;2022-08-18T16:44:45;4.07;;;2.80;;
50900;SDS011;36879;51.416;6.678;2022-08-18T16:47:11;2.95;;;2.13;;
50900;SDS011;36879;51.416;6.678;2022-08-18T16:49:38;3.53;;;2.40;;
50900;SDS011;36879;51.416;6.678;2022-08-18T16:52:05;3.10;;;2.17;;
50900;SDS011;36879;51.416;6.678;2022-08-18T16:54:31;4.10;;;2.50;;
50900;SDS011;36879;51.416;6.678;2022-08-18T16:56:57;3.17;;;2.30;;
50900;SDS011;36879;51.416;6.678;2022-08-18T16:59:24;5.38;;;2.40;;
50900;SDS011;36879;51.416;6.678;2022-08-18T17:02:09;2.83;;;2.35;;
50900;SDS011;36879;51.416;6.678;2022-08-18T17:05:01;3.88;;;2.38;;
50900;SDS011;36879;51.416;6.678;2022-08-18T17:07:28;5.57;;;2.65;;
50900;SDS011;36879;51.416;6.678;2022-08-18T17:09:54;4.43;;;2.40;;
50900;SDS011;36879;51.416;6.678;2022-08-18T17:12:21;6.55;;;3.22;;
50900;SDS011;36879;51.416;6.678;2022-08-18T17:14:47;3.45;;;2.28;;
50900;SDS011;36879;51.416;6.678;2022-08-18T17:17:13;5.10;;;2.70;;
50900;SDS011;36879;51.416;6.678;2022-08-18T17:19:43;7.82;;;2.85;;
50900;SDS011;36879;51.416;6.678;2022-08-18T17:22:10;5.80;;;2.75;;
50900;SDS011;36879;51.416;6.678;2022-08-18T17:24:36;5.95;;;2.58;;
50900;SDS011;36879;51.416;6.678;2022-08-18T17:29:36;3.58;;;2.72;;
50900;SDS011;36879;51.416;6.678;2022-08-18T17:32:10;3.92;;;2.58;;
50900;SDS011;36879;51.416;6.678;2022-08-18T17:34:40;5.25;;;3.83;;
50900;SDS011;36879;51.416;6.678;2022-08-18T17:37:08;4.10;;;3.03;;
50900;SDS011;36879;51.416;6.678;2022-08-18T17:39:38;5.05;;;3.63;;
50900;SDS011;36879;51.416;6.678;2022-08-18T17:42:05;3.85;;;2.85;;
50900;SDS011;36879;51.416;6.678;2022-08-18T17:44:50;5.75;;;2.47;;
50900;SDS011;36879;51.416;6.678;2022-08-18T17:47:18;3.70;;;2.90;;
50900;SDS011;36879;51.416;6.678;2022-08-18T17:49:45;5.53;;;2.55;;
50900;SDS011;36879;51.416;6.678;2022-08-18T17:52:34;3.80;;;2.80;;
50900;SDS011;36879;51.416;6.678;2022-08-18T17:55:12;4.95;;;3.40;;
50900;SDS011;36879;51.416;6.678;2022-08-18T17:57:41;3.97;;;2.70;;
50900;SDS011;36879;51.416;6.678;2022-08-18T18:00:11;5.05;;;3.17;;
50900;SDS011;36879;51.416;6.678;2022-08-18T18:02:39;6.38;;;3.15;;
50900;SDS011;36879;51.416;6.678;2022-08-18T18:05:08;4.55;;;2.90;;
50900;SDS011;36879;51.416;6.678;2022-08-18T18:07:51;2.83;;;2.30;;
50900;SDS011;36879;51.416;6.678;2022-08-18T18:13:03;8.18;;;3.45;;
50900;SDS011;36879;51.416;6.678;2022-08-18T18:15:31;7.60;;;3.17;;
50900;SDS011;36879;51.416;6.678;2022-08-18T18:17:57;4.70;;;3.15;;
50900;SDS011;36879;51.416;6.678;2022-08-18T18:20:42;4.72;;;2.92;;
50900;SDS011;36879;51.416;6.678;2022-08-18T18:23:18;5.43;;;3.13;;
50900;SDS011;36879;51.416;6.678;2022-08-18T18:25:45;5.65;;;3.38;;
50900;SDS011;36879;51.416;6.678;2022-08-18T18:28:25;6.53;;;2.95;;
50900;SDS011;36879;51.416;6.678;2022-08-18T18:30:52;4.20;;;2.85;;
50900;SDS011;36879;51.416;6.678;2022-08-18T18:33:22;5.95;;;3.03;;
50900;SDS011;36879;51.416;6.678;2022-08-18T18:35:49;7.28;;;4.10;;
50900;SDS011;36879;51.416;6.678;2022-08-18T18:38:23;7.78;;;3.08;;
50900;SDS011;36879;51.416;6.678;2022-08-18T18:40:54;7.15;;;3.35;;
50900;SDS011;36879;51.416;6.678;2022-08-18T18:43:25;5.50;;;3.75;;
50900;SDS011;36879;51.416;6.678;2022-08-18T18:48:28;11.20;;;4.65;;
50900;SDS011;36879;51.416;6.678;2022-08-18T18:51:00;4.05;;;3.17;;
50900;SDS011;36879;51.416;6.678;2022-08-18T18:58:50;6.35;;;3.90;;
50900;SDS011;36879;51.416;6.678;2022-08-18T19:04:06;4.68;;;3.10;;
50900;SDS011;36879;51.416;6.678;2022-08-18T19:09:35;3.70;;;2.80;;
50900;SDS011;36879;51.416;6.678;2022-08-18T19:14:51;3.67;;;2.78;;
50900;SDS011;36879;51.416;6.678;2022-08-18T19:17:39;5.05;;;3.10;;
50900;SDS011;36879;51.416;6.678;2022-08-18T19:22:43;5.10;;;3.75;;
50900;SDS011;36879;51.416;6.678;2022-08-18T19:25:21;6.38;;;3.75;;
50900;SDS011;36879;51.416;6.678;2022-08-18T19:30:15;6.80;;;3.38;;
50900;SDS011;36879;51.416;6.678;2022-08-18T19:32:46;5.75;;;3.33;;
50900;SDS011;36879;51.416;6.678;2022-08-18T19:35:15;5.63;;;4.13;;
50900;SDS011;36879;51.416;6.678;2022-08-18T19:40:20;9.70;;;4.85;;
50900;SDS011;36879;51.416;6.678;2022-08-18T19:42:50;6.03;;;3.95;;
50900;SDS011;36879;51.416;6.678;2022-08-18T19:45:27;7.95;;;5.85;;
50900;SDS011;36879;51.416;6.678;2022-08-18T19:47:56;7.57;;;4.13;;
50900;SDS011;36879;51.416;6.678;2022-08-18T19:50:30;9.57;;;6.15;;
50900;SDS011;36879;51.416;6.678;2022-08-18T20:08:14;7.00;;;5.00;;
50900;SDS011;36879;51.416;6.678;2022-08-18T20:18:35;5.75;;;4.55;;
50900;SDS011;36879;51.416;6.678;2022-08-18T20:21:47;7.57;;;4.32;;
50900;SDS011;36879;51.416;6.678;2022-08-18T20:29:05;5.00;;;3.75;;
50900;SDS011;36879;51.416;6.678;2022-08-18T20:34:13;6.68;;;4.07;;
50900;SDS011;36879;51.416;6.678;2022-08-18T20:36:40;9.77;;;4.22;;
50900;SDS011;36879;51.416;6.678;2022-08-18T20:39:53;8.15;;;4.00;;
50900;SDS011;36879;51.416;6.678;2022-08-18T20:41:54;8.27;;;4.90;;
50900;SDS011;36879;51.416;6.678;2022-08-18T20:44:36;6.25;;;4.20;;
50900;SDS011;36879;51.416;6.678;2022-08-18T20:50:00;7.28;;;3.75;;
50900;SDS011;36879;51.416;6.678;2022-08-18T20:57:42;5.47;;;4.20;;
50900;SDS011;36879;51.416;6.678;2022-08-18T21:00:09;7.13;;;4.05;;
50900;SDS011;36879;51.416;6.678;2022-08-18T21:02:38;7.68;;;3.85;;
50900;SDS011;36879;51.416;6.678;2022-08-18T21:05:05;8.75;;;5.75;;
50900;SDS011;36879;51.416;6.678;2022-08-18T21:07:39;5.88;;;4.10;;
50900;SDS011;36879;51.416;6.678;2022-08-18T21:10:22;6.68;;;4.10;;
50900;SDS011;36879;51.416;6.678;2022-08-18T21:12:59;6.88;;;4.43;;
50900;SDS011;36879;51.416;6.678;2022-08-18T21:15:31;5.50;;;3.55;;
50900;SDS011;36879;51.416;6.678;2022-08-18T21:18:04;5.50;;;4.10;;
50900;SDS011;36879;51.416;6.678;2022-08-18T21:20:30;6.25;;;4.70;;
50900;SDS011;36879;51.416;6.678;2022-08-18T21:23:01;7.03;;;5.38;;
50900;SDS011;36879;51.416;6.678;2022-08-18T21:25:28;12.20;;;5.32;;
50900;SDS011;36879;51.416;6.678;2022-08-18T21:27:56;9.48;;;5.65;;
50900;SDS011;36879;51.416;6.678;2022-08-18T21:30:24;6.97;;;4.65;;
50900;SDS011;36879;51.416;6.678;2022-08-18T21:32:50;13.77;;;5.07;;
50900;SDS011;36879;51.416;6.678;2022-08-18T21:35:27;7.57;;;4.65;;
50900;SDS011;36879;51.416;6.678;2022-08-18T21:37:58;6.40;;;4.50;;
50900;SDS011;36879;51.416;6.678;2022-08-18T21:43:00;7.45;;;4.25;;
50900;SDS011;36879;51.416;6.678;2022-08-18T21:45:27;6.45;;;4.63;;
50900;SDS011;36879;51.416;6.678;2022-08-18T21:47:54;9.60;;;5.32;;
50900;SDS011;36879;51.416;6.678;2022-08-18T21:50:25;5.72;;;4.25;;
50900;SDS011;36879;51.416;6.678;2022-08-18T21:58:08;8.27;;;4.72;;
50900;SDS011;36879;51.416;6.678;2022-08-18T22:00:43;6.35;;;4.63;;
50900;SDS011;36879;51.416;6.678;2022-08-18T22:05:37;7.97;;;5.00;;
50900;SDS011;36879;51.416;6.678;2022-08-18T22:08:05;6.75;;;4.50;;
50900;SDS011;36879;51.416;6.678;2022-08-18T22:10:31;7.53;;;4.68;;
50900;SDS011;36879;51.416;6.678;2022-08-18T22:13:18;7.68;;;6.00;;
50900;SDS011;36879;51.416;6.678;2022-08-18T22:18:48;6.50;;;4.88;;
50900;SDS011;36879;51.416;6.678;2022-08-18T22:24:21;10.57;;;5.80;;
50900;SDS011;36879;51.416;6.678;2022-08-18T22:29:41;6.57;;;4.88;;
50900;SDS011;36879;51.416;6.678;2022-08-18T22:32:08;8.18;;;6.28;;
50900;SDS011;36879;51.416;6.678;2022-08-18T22:34:34;9.45;;;5.32;;
50900;SDS011;36879;51.416;6.678;2022-08-18T22:37:02;7.75;;;5.20;;
50900;SDS011;36879;51.416;6.678;2022-08-18T22:39:30;7.80;;;5.18;;
50900;SDS011;36879;51.416;6.678;2022-08-18T22:41:57;9.82;;;6.07;;
50900;SDS011;36879;51.416;6.678;2022-08-18T22:44:23;7.60;;;5.40;;
50900;SDS011;36879;51.416;6.678;2022-08-18T22:46:49;8.88;;;5.63;;
50900;SDS011;36879;51.416;6.678;2022-08-18T22:49:17;10.52;;;5.70;;
50900;SDS011;36879;51.416;6.678;2022-08-18T22:51:43;10.68;;;5.90;;
50900;SDS011;36879;51.416;6.678;2022-08-18T22:54:09;8.68;;;5.60;;
50900;SDS011;36879;51.416;6.678;2022-08-18T22:56:38;7.28;;;5.20;;
50900;SDS011;36879;51.416;6.678;2022-08-18T22:59:06;7.63;;;5.18;;
50900;SDS011;36879;51.416;6.678;2022-08-18T23:01:33;6.53;;;5.05;;
50900;SDS011;36879;51.416;6.678;2022-08-18T23:03:59;7.65;;;5.90;;
50900;SDS011;36879;51.416;6.678;2022-08-18T23:06:25;6.93;;;5.25;;
50900;SDS011;36879;51.416;6.678;2022-08-18T23:08:53;7.43;;;5.18;;
50900;SDS011;36879;51.416;6.678;2022-08-18T23:11:19;6.40;;;4.93;;
50900;SDS011;36879;51.416;6.678;2022-08-18T23:13:45;12.52;;;5.45;;
50900;SDS011;36879;51.416;6.678;2022-08-18T23:16:12;10.85;;;5.75;;
50900;SDS011;36879;51.416;6.678;2022-08-18T23:18:38;9.40;;;5.43;;
50900;SDS011;36879;51.416;6.678;2022-08-18T23:21:04;8.05;;;5.60;;
50900;SDS011;36879;51.416;6.678;2022-08-18T23:23:30;6.60;;;5.13;;
50900;SDS011;36879;51.416;6.678;2022-08-18T23:25:56;8.65;;;5.72;;
50900;SDS011;36879;51.416;6.678;2022-08-18T23:28:23;8.25;;;5.75;;
50900;SDS011;36879;51.416;6.678;2022-08-18T23:30:51;16.52;;;5.45;;
50900;SDS011;36879;51.416;6.678;2022-08-18T23:33:20;8.18;;;6.00;;
50900;SDS011;36879;51.416;6.678;2022-08-18T23:35:46;8.93;;;6.60;;
50900;SDS011;36879;51.416;6.678;2022-08-18T23:38:13;8.02;;;5.53;;
50900;SDS011;36879;51.416;6.678;2022-08-18T23:40:44;8.40;;;6.32;;
50900;SDS011;36879;51.416;6.678;2022-08-18T23:43:10;14.18;;;6.18;;
50900;SDS011;36879;51.416;6.678;2022-08-18T23:45:38;8.90;;;6.57;;
50900;SDS011;36879;51.416;6.678;2022-08-18T23:48:04;8.50;;;5.97;;
50900;SDS011;36879;51.416;6.678;2022-08-18T23:50:31;8.15;;;5.40;;
50900;SDS011;36879;51.416;6.678;2022-08-18T23:52:58;8.50;;;6.18;;
50900;SDS011;36879;51.416;6.678;2022-08-18T23:55:25;10.98;;;6.28;;
50900;SDS011;36879;51.416;6.678;2022-08-18T23:57:51;11.70;;;6.57;;
